createdAt,value
2023-04-25T00:05:00.015Z,42
2023-04-25T00:09:59.746Z,41
2023-04-25T00:14:59.864Z,41
2023-04-25T00:19:59.938Z,41
2023-04-25T00:24:59.798Z,40
2023-04-25T00:29:59.996Z,40
2023-04-25T00:34:59.665Z,40
2023-04-25T00:39:59.765Z,40
2023-04-25T00:44:59.593Z,40
2023-04-25T00:49:59.747Z,40
2023-04-25T00:54:59.554Z,40
2023-04-25T00:59:59.514Z,40
2023-04-25T01:05:00.165Z,40
2023-04-25T01:09:59.411Z,40
2023-04-25T01:14:59.442Z,40
2023-04-25T01:19:59.397Z,40
2023-04-25T01:25:00.202Z,40
2023-04-25T01:29:59.693Z,40
2023-04-25T01:34:59.443Z,40
2023-04-25T01:39:59.297Z,40
2023-04-25T01:44:59.915Z,40
2023-04-25T01:49:59.649Z,40
2023-04-25T01:54:59.535Z,40
2023-04-25T02:00:00.381Z,40
2023-04-25T02:04:59.374Z,40
2023-04-25T02:09:59.330Z,40
2023-04-25T02:14:59.615Z,40
2023-04-25T02:19:59.732Z,40
2023-04-25T02:24:59.537Z,40
2023-04-25T02:29:59.216Z,41
2023-04-25T02:34:59.349Z,41
2023-04-25T02:39:59.938Z,41
2023-04-25T02:44:59.616Z,41
2023-04-25T02:49:59.610Z,41
2023-04-25T02:54:59.343Z,41
2023-04-25T02:59:59.426Z,41
2023-04-25T03:04:59.451Z,41
2023-04-25T03:09:59.421Z,41
2023-04-25T03:14:59.337Z,41
2023-04-25T03:19:59.559Z,89.3
2023-04-25T03:24:59.512Z,40
2023-04-25T03:29:59.025Z,40
2023-04-25T03:34:59.427Z,40
2023-04-25T03:39:59.551Z,40
2023-04-25T03:44:59.313Z,40
2023-04-25T03:49:59.280Z,40
2023-04-25T03:54:59.187Z,40
2023-04-25T03:59:59.196Z,40
2023-04-25T04:04:59.285Z,41
2023-04-25T04:09:59.030Z,41
2023-04-25T04:14:59.078Z,41
2023-04-25T04:19:59.332Z,41
2023-04-25T04:24:59.207Z,41
2023-04-25T04:29:59.213Z,41
2023-04-25T04:34:59.109Z,40
2023-04-25T04:39:59.154Z,40
2023-04-25T04:44:59.392Z,40
2023-04-25T04:49:59.018Z,40
2023-04-25T04:54:59.274Z,40
2023-04-25T04:59:59.552Z,89.6
2023-04-25T05:04:59.194Z,89.7
2023-04-25T05:09:59.316Z,89.3
2023-04-25T05:14:59.211Z,90
2023-04-25T05:19:59.406Z,88.5
2023-04-25T05:24:59.052Z,39
2023-04-25T05:29:59.145Z,87.9
2023-04-25T05:34:59.126Z,87.7
2023-04-25T05:39:59.097Z,88.1
2023-04-25T05:44:58.814Z,39
2023-04-25T05:49:59.594Z,82
2023-04-25T05:54:59.252Z,81.5
2023-04-25T05:59:58.987Z,85.7
2023-04-25T06:04:59.415Z,84.9
2023-04-25T06:09:59.154Z,81
2023-04-25T06:14:59.012Z,84.2
2023-04-25T06:19:58.788Z,85.1
2023-04-25T06:24:58.871Z,83.6
2023-04-25T06:29:58.898Z,85.8
2023-04-25T06:34:58.741Z,84.8
2023-04-25T06:39:59.125Z,84.1
2023-04-25T06:44:58.914Z,82.9
2023-04-25T06:49:58.986Z,84
2023-04-25T06:54:58.604Z,84.6
2023-04-25T07:00:00.279Z,81.6
2023-04-25T07:04:59.076Z,79.7
2023-04-25T07:09:58.714Z,81.5
2023-04-25T07:14:59.029Z,81.3
2023-04-25T07:19:58.705Z,81.1
2023-04-25T07:24:58.897Z,81.6
2023-04-25T07:29:59.086Z,82.4
2023-04-25T07:34:58.744Z,78.3
2023-04-25T07:39:58.629Z,75.6
2023-04-25T07:44:58.589Z,70.8
2023-04-25T07:49:58.631Z,70.6
2023-04-25T07:54:58.760Z,69
2023-04-25T07:59:58.890Z,67.4
2023-04-25T08:04:58.909Z,69.9
2023-04-25T08:09:58.457Z,67.5
2023-04-25T08:14:58.913Z,68.2
2023-04-25T08:19:59.044Z,66.7
2023-04-25T08:24:58.571Z,66.2
2023-04-25T08:29:58.405Z,64.9
2023-04-25T08:34:58.642Z,63.7
2023-04-25T08:39:58.599Z,61.3
2023-04-25T08:44:58.522Z,63.1
2023-04-25T08:49:58.584Z,68.6
2023-04-25T08:54:58.422Z,65.5
2023-04-25T08:59:58.445Z,64.7
2023-04-25T09:04:59.226Z,63
2023-04-25T09:09:58.281Z,60.9
2023-04-25T09:14:58.366Z,61.5
2023-04-25T09:20:05.640Z,56.6
2023-04-25T09:25:01.914Z,59.2
2023-04-25T09:29:58.936Z,56.5
2023-04-25T09:34:58.456Z,57.1
2023-04-25T09:39:59.528Z,57.2
2023-04-25T09:44:58.967Z,63.4
2023-04-25T09:49:58.872Z,67.6
2023-04-25T09:54:58.464Z,67.4
2023-04-25T09:59:58.373Z,68.2
2023-04-25T10:04:58.911Z,64.8
2023-04-25T10:09:59.281Z,66.9
2023-04-25T10:14:58.438Z,67.4
2023-04-25T10:20:00.401Z,65.9
2023-04-25T10:24:58.322Z,64.4
2023-04-25T10:30:01.602Z,63.8
2023-04-25T10:35:09.797Z,60.2
2023-04-25T10:39:58.117Z,61.3
2023-04-25T10:44:58.462Z,59.6
2023-04-25T10:50:04.283Z,60.8
2023-04-25T10:54:58.700Z,60.5
2023-04-25T10:59:58.187Z,58.7
2023-04-25T11:04:58.191Z,58.7
2023-04-25T11:09:58.138Z,59.5
2023-04-25T11:14:59.026Z,56.3
2023-04-25T11:19:58.837Z,60
2023-04-25T11:25:04.080Z,59
2023-04-25T11:29:58.276Z,59.9
2023-04-25T11:34:58.105Z,59
2023-04-25T11:39:58.873Z,58.2
2023-04-25T11:44:58.321Z,56.6
2023-04-25T11:49:58.212Z,58.5
2023-04-25T11:54:57.951Z,61.9
2023-04-25T12:00:04.854Z,65.3
2023-04-25T12:05:07.487Z,65.8
2023-04-25T12:09:58.276Z,68.1
2023-04-25T12:15:07.771Z,68.8
2023-04-25T12:19:58.090Z,68.7
2023-04-25T12:24:57.948Z,64.2
2023-04-25T12:29:58.265Z,62
2023-04-25T12:34:58.150Z,59.7
2023-04-25T12:39:58.037Z,57.4
2023-04-25T12:44:58.035Z,56.7
2023-04-25T12:49:57.854Z,54.2
2023-04-25T12:54:58.109Z,54.8
2023-04-25T12:59:58.091Z,54.1
2023-04-25T13:04:57.912Z,50.1
2023-04-25T13:09:58.406Z,48.3
2023-04-25T13:14:58.051Z,43.9
2023-04-25T13:19:58.076Z,41.8
2023-04-25T13:24:57.850Z,45.9
2023-04-25T13:29:57.990Z,48.4
2023-04-25T13:34:57.904Z,47.7
2023-04-25T13:39:57.885Z,50.4
2023-04-25T13:44:58.135Z,41.9
2023-04-25T13:49:58.123Z,43.8
2023-04-25T13:54:57.905Z,48.8
2023-04-25T13:59:58.236Z,57.6
2023-04-25T14:04:57.762Z,62.4
2023-04-25T14:09:58.052Z,58.3
2023-04-25T14:14:58.059Z,55.6
2023-04-25T14:19:57.965Z,55.5
2023-04-25T14:24:57.772Z,58
2023-04-25T14:29:58.031Z,61.1
2023-04-25T14:34:57.864Z,62.7
2023-04-25T14:39:57.807Z,61
2023-04-25T14:44:57.785Z,59.8
2023-04-25T14:49:58.067Z,56.9
2023-04-25T14:54:57.973Z,51.7
2023-04-25T14:59:58.037Z,51.1
2023-04-25T15:04:57.870Z,50.1
2023-04-25T15:09:57.778Z,49.3
2023-04-25T15:14:57.604Z,49.1
2023-04-25T15:19:57.781Z,52.2
2023-04-25T15:24:57.686Z,54.3
2023-04-25T15:29:57.861Z,56.6
2023-04-25T15:34:57.754Z,58.5
2023-04-25T15:40:00.653Z,58.4
2023-04-25T15:44:57.630Z,58.2
2023-04-25T15:49:57.713Z,59.3
2023-04-25T15:54:57.980Z,58.9
2023-04-25T15:59:57.633Z,58.6
2023-04-25T16:04:57.971Z,55.9
2023-04-25T16:09:57.803Z,53.6
2023-04-25T16:14:57.894Z,54.3
2023-04-25T16:19:57.748Z,52
2023-04-25T16:24:57.354Z,54.4
2023-04-25T16:29:57.822Z,52.1
2023-04-25T16:34:59.028Z,53.5
2023-04-25T16:39:57.555Z,54.7
2023-04-25T16:44:57.626Z,55.2
2023-04-25T16:49:58.852Z,53.9
2023-04-25T16:54:57.634Z,53.5
2023-04-25T16:59:57.741Z,53.8
2023-04-25T17:04:57.360Z,52.6
2023-04-25T17:09:57.281Z,52.2
2023-04-25T17:14:57.454Z,52.8
2023-04-25T17:19:57.562Z,54.1
2023-04-25T17:24:57.621Z,54.1
2023-04-25T17:29:57.715Z,54
2023-04-25T17:34:57.390Z,56.4
2023-04-25T17:39:57.432Z,58.4
2023-04-25T17:44:57.805Z,59.5
2023-04-25T17:49:57.730Z,60.8
2023-04-25T17:54:57.450Z,59
2023-04-25T17:59:57.523Z,60.3
2023-04-25T18:04:57.287Z,59.5
2023-04-25T18:09:57.268Z,62.7
2023-04-25T18:14:57.390Z,62.2
2023-04-25T18:19:57.442Z,63.8
2023-04-25T18:24:57.260Z,64.2
2023-04-25T18:30:00.900Z,64.6
2023-04-25T18:35:00.612Z,65.8
2023-04-25T18:40:00.764Z,67.1
2023-04-25T18:45:00.902Z,68.2
2023-04-25T18:50:00.670Z,68.4
2023-04-25T18:55:00.528Z,69.4
2023-04-25T19:00:00.793Z,69.7
2023-04-25T19:05:00.308Z,67.7
2023-04-25T19:10:00.337Z,69.9
2023-04-25T19:15:00.593Z,69.4
2023-04-25T19:20:00.672Z,66.6
2023-04-25T19:25:10.076Z,66.1
2023-04-25T19:30:00.571Z,66.3
2023-04-25T19:35:00.608Z,64.9
2023-04-25T19:40:00.661Z,66.5
2023-04-25T19:45:00.864Z,69
2023-04-25T19:50:00.401Z,67.5
2023-04-25T19:55:00.855Z,68.1
2023-04-25T20:00:00.443Z,70.1
2023-04-25T20:05:00.606Z,71.1
2023-04-25T20:10:00.313Z,71.2
2023-04-25T20:15:00.548Z,72.9
2023-04-25T20:20:00.898Z,70.4
2023-04-25T20:25:00.502Z,68.7
2023-04-25T20:30:00.496Z,67.5
2023-04-25T20:35:00.430Z,67.5
2023-04-25T20:40:00.319Z,67.7
2023-04-25T20:45:00.881Z,69.5
2023-04-25T20:50:00.524Z,69
2023-04-25T20:55:00.290Z,71.6
2023-04-25T21:00:00.508Z,72.4
2023-04-25T21:05:00.336Z,72.2
2023-04-25T21:10:00.755Z,73.2
2023-04-25T21:15:00.208Z,74.8
2023-04-25T21:20:00.520Z,75.2
2023-04-25T21:25:00.283Z,77.1
2023-04-25T21:30:00.203Z,78.6
2023-04-25T21:35:00.071Z,78.3
2023-04-25T21:40:00.214Z,78.6
2023-04-25T21:45:00.613Z,79.6
2023-04-25T21:49:59.947Z,80.1
2023-04-25T21:55:00.306Z,80.9
2023-04-25T22:00:00.353Z,80.8
2023-04-25T22:05:00.361Z,80.6
2023-04-25T22:10:00.233Z,80.9
2023-04-25T22:15:00.275Z,81.1
2023-04-25T22:20:00.843Z,82
2023-04-25T22:24:59.979Z,82.9
2023-04-25T22:30:00.399Z,83.1
2023-04-25T22:34:59.738Z,83.7
2023-04-25T22:39:59.828Z,84
2023-04-25T22:45:01.293Z,84.9
2023-04-25T22:50:00.335Z,85.3
2023-04-25T22:55:00.033Z,86
2023-04-25T23:00:00.267Z,86.8
2023-04-25T23:04:59.756Z,86.8
2023-04-25T23:10:00.069Z,86.8
2023-04-25T23:15:00.357Z,86.4
2023-04-25T23:20:00.196Z,85.7
2023-04-25T23:24:59.835Z,86.3
2023-04-25T23:29:59.818Z,85.7
2023-04-25T23:34:59.965Z,85.5
2023-04-25T23:40:00.141Z,86.6
2023-04-25T23:45:00.080Z,86.8
2023-04-25T23:49:59.791Z,87.5
2023-04-25T23:54:59.747Z,86.9
2023-04-25T23:59:59.679Z,88
